Terminal Aerodrome Forecast
Issued by NWS

Home | Current Version | Previous Version | Text Only | Print | Product List | Glossary On
Versions: 1 2 3 4 5 6 7 8 9 10 11 12 13 14 15 16 17 18 19 20 21 22 23 24 25 26 27 28 29 30 31
000
FTUS45 KGJT 092334
TAFASE
TAF
KASE 092334Z 1000/1024 36008KT P6SM VCTS SCT070CB BKN100
     FM100100 16006KT P6SM VCSH SCT070 OVC100
     FM100300 18006KT P6SM SCT100 BKN180
     FM101400 VRB03KT P6SM SCT100 BKN180
     FM101800 35005KT P6SM VCTS SCT100CB BKN150=

USA.gov is the U.S. government's official web portal to all federal, state and local government web resources and services.